Flight Track Log - Related Links

Times and Time Zones

All times are in EST time to prevent confusion due to time zone crossing. See the ANZ288 flight status page for this flight to view local times or setup timezone preferences in your user account.

Time Position Orientation Groundspeed Altitude Reporting Facility
EST Latitude Longitude Course Direction KTS MPH feet Rate Location/Type
06:25AM 3.9099 146.4377 158° South  Level FlightAware Approximate
06:26AM 3.7848 146.4878 158° South  Level FlightAware Approximate
06:27AM 3.6597 146.5380 158° South  Level FlightAware Approximate
06:28AM 3.5347 146.5881 158° South  Level FlightAware Approximate
06:29AM 3.4096 146.6382 158° South  Level FlightAware Approximate
06:30AM 3.2845 146.6883 158° South  Level FlightAware Approximate
06:31AM 3.1594 146.7383 158° South  Level FlightAware Approximate
06:32AM 3.0343 146.7884 158° South  Level FlightAware Approximate
06:33AM 2.9091 146.8385 158° South  Level FlightAware Approximate
06:34AM 2.7840 146.8885 158° South  Level FlightAware Approximate
06:35AM 2.6589 146.9385 158° South  Level FlightAware Approximate
06:36AM 2.5279 146.9909 158° South  Level FlightAware Approximate
06:37AM 2.3969 147.0432 158° South  Level FlightAware Approximate
06:38AM 2.2659 147.0956 158° South  Level FlightAware Approximate
06:39AM 2.1349 147.1479 158° South  Level FlightAware Approximate
06:40AM 2.0039 147.2003 158° South  Level FlightAware Approximate
06:41AM 1.8729 147.2526 158° South  Level FlightAware Approximate
06:42AM 1.7419 147.3049 158° South  Level FlightAware Approximate
06:43AM 1.6108 147.3572 158° South  Level FlightAware Approximate
06:44AM 1.4798 147.4095 158° South  Level FlightAware Approximate
06:45AM 1.3488 147.4618 158° South  Level FlightAware Approximate
06:46AM 1.2178 147.5141 158° South  Level FlightAware Approximate
06:47AM 1.0868 147.5664 158° South  Level FlightAware Approximate
06:48AM 0.9557 147.6187 158° South  Level FlightAware Approximate
06:49AM 0.8247 147.6710 158° South  Level FlightAware Approximate
06:50AM 0.6937 147.7233 158° South  Level FlightAware Approximate
06:51AM 0.5627 147.7755 158° South  Level FlightAware Approximate
06:52AM 0.4317 147.8278 158° South  Level FlightAware Approximate
06:53AM 0.3007 147.8801 158° South  Level FlightAware Approximate
06:54AM 0.1696 147.9323 158° South  Level FlightAware Approximate
06:55AM 0.0386 147.9846 158° South  Level FlightAware Approximate
06:56AM -0.0925 148.0369 158° South  Level FlightAware Approximate
06:57AM -0.2235 148.0892 158° South  Level FlightAware Approximate
06:58AM -0.3545 148.1414 158° South  Level FlightAware Approximate
06:59AM -0.4855 148.1937 158° South  Level FlightAware Approximate
07:00AM -0.6165 148.2460 158° South  Level FlightAware Approximate
07:01AM -0.7476 148.2982 158° South  Level FlightAware Approximate
07:02AM -0.8786 148.3505 158° South  Level FlightAware Approximate
07:03AM -1.0096 148.4028 158° South  Level FlightAware Approximate
07:04AM -1.1406 148.4551 158° South  Level FlightAware Approximate
07:05AM -1.2716 148.5074 158° South  Level FlightAware Approximate
07:06AM -1.4026 148.5596 158° South  Level FlightAware Approximate
07:07AM -1.5337 148.6120 158° South  Level FlightAware Approximate
07:08AM -1.6647 148.6643 158° South  Level FlightAware Approximate
07:09AM -1.7957 148.7166 158° South  Level FlightAware Approximate
07:10AM -1.9267 148.7689 158° South  Level FlightAware Approximate
07:11AM -2.0577 148.8212 158° South  Level FlightAware Approximate
07:12AM -2.1887 148.8736 158° South  Level FlightAware Approximate
07:13AM -2.3198 148.9259 158° South  Level FlightAware Approximate
07:14AM -2.4508 148.9783 158° South  Level FlightAware Approximate
07:15AM -2.5818 149.0306 158° South  Level FlightAware Approximate
07:16AM -2.7128 149.0830 158° South  Level FlightAware Approximate
07:17AM -2.8438 149.1354 158° South  Level FlightAware Approximate
07:18AM -2.9748 149.1878 158° South  Level FlightAware Approximate
07:19AM -3.1058 149.2402 158° South  Level FlightAware Approximate
07:20AM -3.2368 149.2926 158° South  Level FlightAware Approximate
07:21AM -3.3677 149.3451 158° South  Level FlightAware Approximate
07:22AM -3.4987 149.3975 158° South  Level FlightAware Approximate
07:23AM -3.6297 149.4500 158° South  Level FlightAware Approximate
07:24AM -3.7607 149.5025 158° South  Level FlightAware Approximate
07:25AM -3.8917 149.5550 158° South  Level FlightAware Approximate
07:26AM -4.0227 149.6075 158° South  Level FlightAware Approximate
07:27AM -4.1536 149.6600 158° South  Level FlightAware Approximate
07:28AM -4.2846 149.7126 158° South  Level FlightAware Approximate
07:29AM -4.4156 149.7652 158° South  Level FlightAware Approximate
07:30AM -4.5465 149.8177 158° South  Level FlightAware Approximate
07:31AM -4.6775 149.8703 158° South  Level FlightAware Approximate
07:32AM -4.8084 149.9230 158° South  Level FlightAware Approximate
07:33AM -4.9394 149.9756 158° South  Level FlightAware Approximate
07:34AM -5.0705 150.0279 158° South  Level FlightAware Approximate
07:35AM -5.2017 150.0798 158° South  Level FlightAware Approximate
07:36AM -5.3330 150.1318 158° South  Level FlightAware Approximate
07:37AM -5.4642 150.1838 158° South  Level FlightAware Approximate
07:38AM -5.5954 150.2358 158° South  Level FlightAware Approximate
07:39AM -5.7266 150.2878 158° South  Level FlightAware Approximate
07:40AM -5.8579 150.3399 158° South  Level FlightAware Approximate
07:41AM -5.9891 150.3920 158° South  Level FlightAware Approximate
07:42AM -6.1203 150.4441 158° South  Level FlightAware Approximate
07:43AM -6.2515 150.4962 158° South  Level FlightAware Approximate
07:44AM -6.3826 150.5484 158° South  Level FlightAware Approximate
07:45AM -6.5138 150.6005 158° South  Level FlightAware Approximate
07:46AM -6.6450 150.6528 158° South  Level FlightAware Approximate
07:47AM -6.7762 150.7050 158° South  Level FlightAware Approximate
07:48AM -6.9074 150.7573 158° South  Level FlightAware Approximate
07:49AM -7.0385 150.8096 158° South  Level FlightAware Approximate
07:50AM -7.1697 150.8619 158° South  Level FlightAware Approximate
07:51AM -7.3009 150.9142 158° South  Level FlightAware Approximate
07:52AM -7.4320 150.9666 158° South  Level FlightAware Approximate
07:53AM -7.5631 151.0191 158° South  Level FlightAware Approximate
07:54AM -7.6943 151.0715 158° South  Level FlightAware Approximate
07:55AM -7.8254 151.1240 158° South  Level FlightAware Approximate
07:56AM -7.9565 151.1765 158° South  Level FlightAware Approximate
07:57AM -8.0877 151.2291 158° South  Level FlightAware Approximate
07:58AM -8.2188 151.2816 158° South  Level FlightAware Approximate
07:59AM -8.3499 151.3343 158° South  Level FlightAware Approximate
08:00AM -8.4810 151.3869 158° South  Level FlightAware Approximate
08:01AM -8.6121 151.4396 158° South  Level FlightAware Approximate
08:02AM -8.7431 151.4923 158° South  Level FlightAware Approximate
08:03AM -8.8742 151.5451 158° South  Level FlightAware Approximate
08:04AM -9.0053 151.5979 158° South  Level FlightAware Approximate
08:05AM -9.1363 151.6507 158° South  Level FlightAware Approximate
08:06AM -9.2674 151.7036 158° South  Level FlightAware Approximate
08:07AM -9.3984 151.7565 158° South  Level FlightAware Approximate
08:08AM -9.5295 151.8095 158° South  Level FlightAware Approximate
08:09AM -9.6605 151.8625 158° South  Level FlightAware Approximate
08:10AM -9.7915 151.9155 158° South  Level FlightAware Approximate
08:11AM -9.9226 151.9686 158° South  Level FlightAware Approximate
08:12AM -10.0518 152.0257 154° Southeast  Level FlightAware Approximate
08:13AM -10.1785 152.0887 154° Southeast  Level FlightAware Approximate
08:14AM -10.3052 152.1517 154° Southeast  Level FlightAware Approximate
08:15AM -10.4319 152.2147 154° Southeast  Level FlightAware Approximate
08:16AM -10.5586 152.2778 154° Southeast  Level FlightAware Approximate
08:17AM -10.6853 152.3410 154° Southeast  Level FlightAware Approximate
08:18AM -10.8120 152.4042 154° Southeast  Level FlightAware Approximate
08:19AM -10.9386 152.4674 154° Southeast  Level FlightAware Approximate
08:20AM -11.0653 152.5307 154° Southeast  Level FlightAware Approximate
08:21AM -11.1919 152.5941 154° Southeast  Level FlightAware Approximate
08:22AM -11.3185 152.6575 154° Southeast  Level FlightAware Approximate
08:23AM -11.4451 152.7210 154° Southeast  Level FlightAware Approximate
08:24AM -11.5717 152.7845 154° Southeast  Level FlightAware Approximate
08:25AM -11.6982 152.8481 154° Southeast  Level FlightAware Approximate
08:26AM -11.8248 152.9118 154° Southeast  Level FlightAware Approximate
08:27AM -11.9513 152.9755 154° Southeast  Level FlightAware Approximate
08:28AM -12.0753 153.0441 150° Southeast  Level FlightAware Approximate
08:29AM -12.1977 153.1158 150° Southeast  Level FlightAware Approximate
08:30AM -12.3201 153.1876 150° Southeast  Level FlightAware Approximate
08:31AM -12.4425 153.2595 150° Southeast  Level FlightAware Approximate
08:31AM 21.0000 137.8167 147° Southeast 515 593 33,000  Level Oakland Oceanic (ODAPS)
08:32AM -12.5648 153.3314 150° Southeast  Level FlightAware Approximate
08:33AM -12.6872 153.4034 150° Southeast  Level FlightAware Approximate
08:34AM -12.8095 153.4754 150° Southeast  Level FlightAware Approximate
08:35AM -12.9318 153.5476 150° Southeast  Level FlightAware Approximate
08:36AM -13.0541 153.6198 150° Southeast  Level FlightAware Approximate
08:37AM 20.0313 138.4782 148° Southeast 515 593 33,000  Level FlightAware Transoceanic
08:38AM 19.9100 138.5603 148° Southeast 515 593 33,000  Level FlightAware Transoceanic
08:39AM 19.7887 138.6423 148° Southeast 515 593 33,000  Level FlightAware Transoceanic
08:40AM 19.6674 138.7241 148° Southeast 515 593 33,000  Level FlightAware Transoceanic
08:41AM 19.5460 138.8059 148° Southeast 515 593 33,000  Level FlightAware Transoceanic
08:42AM 19.4246 138.8875 148° Southeast 515 593 33,000  Level FlightAware Transoceanic
08:43AM 19.3032 138.9690 148° Southeast 515 593 33,000  Level FlightAware Transoceanic
08:44AM 19.1817 139.0503 148° Southeast 515 593 33,000  Level FlightAware Transoceanic
08:45AM 19.0602 139.1316 148° Southeast 515 593 33,000  Level FlightAware Transoceanic
08:46AM 18.9386 139.2127 148° Southeast 515 593 33,000  Level FlightAware Transoceanic
08:47AM 18.8170 139.2937 148° Southeast 515 593 33,000  Level FlightAware Transoceanic
08:48AM 18.6954 139.3746 148° Southeast 515 593 33,000  Level FlightAware Transoceanic
08:49AM 18.5737 139.4554 148° Southeast 515 593 33,000  Level FlightAware Transoceanic
08:50AM 18.4520 139.5361 148° Southeast 515 593 33,000  Level FlightAware Transoceanic
08:51AM 18.3303 139.6166 148° Southeast 515 593 33,000  Level FlightAware Transoceanic
08:52AM 18.2085 139.6970 148° Southeast 515 593 33,000  Level FlightAware Transoceanic
08:53AM 18.0868 139.7773 148° Southeast 515 593 33,000  Level FlightAware Transoceanic
08:54AM 17.9649 139.8576 148° Southeast 515 593 33,000  Level FlightAware Transoceanic
08:55AM 17.8431 139.9377 148° Southeast 515 593 33,000  Level FlightAware Transoceanic
08:56AM 17.7212 140.0177 148° Southeast 515 593 33,000  Level FlightAware Transoceanic
08:57AM 17.5993 140.0975 148° Southeast 515 593 33,000  Level FlightAware Transoceanic
08:58AM 17.4773 140.1773 148° Southeast 515 593 33,000  Level FlightAware Transoceanic
08:59AM 17.3553 140.2570 148° Southeast 515 593 33,000  Level FlightAware Transoceanic
09:00AM 17.2333 140.3365 148° Southeast 515 593 33,000  Level FlightAware Transoceanic
09:01AM 17.1112 140.4160 148° Southeast 515 593 33,000  Level FlightAware Transoceanic
09:02AM 16.9891 140.4953 148° Southeast 515 593 33,000  Level FlightAware Transoceanic
09:03AM 16.8670 140.5746 148° Southeast 515 593 33,000  Level FlightAware Transoceanic
09:04AM 16.7449 140.6537 148° Southeast 515 593 33,000  Level FlightAware Transoceanic
09:05AM 16.6227 140.7328 148° Southeast 515 593 33,000  Level FlightAware Transoceanic
09:06AM 16.5005 140.8117 148° Southeast 515 593 33,000  Level FlightAware Transoceanic
09:07AM 16.3783 140.8906 148° Southeast 515 593 33,000  Level FlightAware Transoceanic
09:08AM 16.2560 140.9693 148° Southeast 515 593 33,000  Level FlightAware Transoceanic
09:09AM 16.1337 141.0480 148° Southeast 515 593 33,000  Level FlightAware Transoceanic
09:10AM 16.0114 141.1265 148° Southeast 515 593 33,000  Level FlightAware Transoceanic
09:11AM 15.8890 141.2050 148° Southeast 515 593 33,000  Level FlightAware Transoceanic
09:12AM 15.7667 141.2833 148° Southeast 515 593 33,000  Level FlightAware Transoceanic
09:13AM 15.6497 141.3578 149° Southeast 515 593 33,000  Level FlightAware Transoceanic
09:14AM 15.5327 141.4322 149° Southeast 515 593 33,000  Level FlightAware Transoceanic
09:15AM 15.4157 141.5065 149° Southeast 515 593 33,000  Level FlightAware Transoceanic
09:16AM 15.2986 141.5808 149° Southeast 515 593 33,000  Level FlightAware Transoceanic
09:17AM 15.1815 141.6549 149° Southeast 515 593 33,000  Level FlightAware Transoceanic
09:18AM 15.0644 141.7290 149° Southeast 515 593 33,000  Level FlightAware Transoceanic
09:19AM 14.9473 141.8030 149° Southeast 515 593 33,000  Level FlightAware Transoceanic
09:20AM 14.8301 141.8769 149° Southeast 515 593 33,000  Level FlightAware Transoceanic
09:21AM 14.7129 141.9507 149° Southeast 515 593 33,000  Level FlightAware Transoceanic
09:22AM 14.5957 142.0244 149° Southeast 515 593 33,000  Level FlightAware Transoceanic
09:23AM 14.4785 142.0981 149° Southeast 515 593 33,000  Level FlightAware Transoceanic
09:24AM 14.3613 142.1717 149° Southeast 515 593 33,000  Level FlightAware Transoceanic
09:25AM 14.2440 142.2452 149° Southeast 515 593 33,000  Level FlightAware Transoceanic
09:26AM 14.1267 142.3186 149° Southeast 515 593 33,000  Level FlightAware Transoceanic
09:27AM 14.0094 142.3920 149° Southeast 515 593 33,000  Level FlightAware Transoceanic
09:28AM 13.8921 142.4653 149° Southeast 515 593 33,000  Level FlightAware Transoceanic
09:29AM 13.7747 142.5385 149° Southeast 515 593 33,000  Level FlightAware Transoceanic
09:30AM 13.6573 142.6116 149° Southeast 515 593 33,000  Level FlightAware Transoceanic
09:31AM 13.5399 142.6847 149° Southeast 515 593 33,000  Level FlightAware Transoceanic
09:32AM 13.4225 142.7577 149° Southeast 515 593 33,000  Level FlightAware Transoceanic
09:33AM 13.3051 142.8306 149° Southeast 515 593 33,000  Level FlightAware Transoceanic
09:34AM 13.1876 142.9034 149° Southeast 515 593 33,000  Level FlightAware Transoceanic
09:35AM 13.0701 142.9762 149° Southeast 515 593 33,000  Level FlightAware Transoceanic
09:35AM 13.1667 142.9000 152° Southeast 490 564 33,000  Level Guam Center
09:36AM 12.9526 143.0489 149° Southeast 515 593 33,000  Level FlightAware Transoceanic
09:36AM 13.0333 142.9833 149° Southeast 500 575 33,000  Level Guam Center
09:37AM 12.8351 143.1216 149° Southeast 515 593 33,000  Level FlightAware Transoceanic
09:37AM 12.9167 143.0500 151° Southeast 500 575 33,000  Level Guam Center
09:38AM 12.7176 143.1942 149° Southeast 515 593 33,000  Level FlightAware Transoceanic
09:38AM 12.8000 143.1333 145° Southeast 500 575 33,000  Level Guam Center
09:39AM 12.6335 143.2396 152° Southeast  Level FlightAware Approximate
09:39AM 12.6833 143.2000 151° Southeast 500 575 33,000  Level Guam Center
09:40AM 12.5494 143.2850 152° Southeast  Level FlightAware Approximate
09:40AM 12.5667 143.2667 151° Southeast 500 575 33,000  Level Guam Center
09:41AM 12.4333 143.3167 160° South 500 575 33,000  Level Guam Center
09:42AM 12.3000 143.3667 160° South 490 564 33,000  Level Guam Center
09:43AM 12.1667 143.4167 160° South 490 564 33,000  Level Guam Center
09:44AM 12.0500 143.4667 157° South 500 575 33,000  Level Guam Center
09:45AM 11.9167 143.5167 160° South 490 564 33,000  Level Guam Center
09:46AM 11.7833 143.5500 166° South 500 575 33,000  Level Guam Center
09:47AM 11.6500 143.6000 160° South 490 564 33,000  Level Guam Center
09:48AM 11.5167 143.6500 160° South 490 564 33,000  Level Guam Center
09:49AM 11.3667 143.7167 156° South 490 564 33,000  Level Guam Center
09:50AM 11.2333 143.7500 166° South 490 564 33,000  Level Guam Center
09:51AM 11.1167 143.8000 157° South 490 564 33,000  Level Guam Center
09:52AM 10.9833 143.8500 160° South 490 564 33,000  Level Guam Center
09:53AM 10.8500 143.9000 160° South 490 564 33,000  Level Guam Center
09:54AM 10.7167 143.9500 160° South 490 564 33,000  Level Guam Center
09:55AM 10.6000 144.0000 157° South 490 564 33,000  Level Guam Center
09:56AM 10.4667 144.0333 166° South 490 564 33,000  Level Guam Center
09:57AM 10.3333 144.0833 160° South 490 564 33,000  Level Guam Center
09:58AM 10.2167 144.1333 157° South 490 564 33,000  Level Guam Center
09:59AM 10.0833 144.1833 160° South 490 564 33,000  Level Guam Center
10:00AM 9.9500 144.2333 160° South 490 564 33,000  Level Guam Center
10:01AM 9.8167 144.2833 160° South 490 564 33,000  Level Guam Center
10:02AM 9.7000 144.3167 164° South 490 564 33,000  Level Guam Center
10:03AM 9.5667 144.3667 160° South 490 564 33,000  Level Guam Center
10:04AM 9.4333 144.4167 160° South 490 564 33,000  Level Guam Center
10:56AM 5.0000 146.0000 158° South 482 555 33,000  Level Oakland Oceanic (ODAPS)
10:57AM 4.7865 146.0858 158° South  Level FlightAware Approximate
10:58AM 4.6982 146.1213 158° South  Level FlightAware Approximate
10:59AM 4.6099 146.1568 158° South  Level FlightAware Approximate
11:00AM 4.5216 146.1922 158° South  Level FlightAware Approximate
11:01AM 4.4333 146.2277 158° South  Level FlightAware Approximate
11:02AM 2.0003 147.2017 158° South 482 555 33,000  Level FlightAware Transoceanic
11:03AM 1.8753 147.2516 158° South 482 555 33,000  Level FlightAware Transoceanic
11:04AM 1.7503 147.3016 158° South 482 555 33,000  Level FlightAware Transoceanic
11:05AM 1.6253 147.3515 158° South 482 555 33,000  Level FlightAware Transoceanic
11:06AM 1.5003 147.4014 158° South 482 555 33,000  Level FlightAware Transoceanic
11:07AM 1.3753 147.4513 158° South 482 555 33,000  Level FlightAware Transoceanic
11:08AM 1.2502 147.5012 158° South 482 555 33,000  Level FlightAware Transoceanic
11:09AM 1.1252 147.5511 158° South 482 555 33,000  Level FlightAware Transoceanic
11:10AM 1.0002 147.6010 158° South 482 555 33,000  Level FlightAware Transoceanic
11:11AM 0.8752 147.6509 158° South 482 555 33,000  Level FlightAware Transoceanic
11:12AM 0.7502 147.7007 158° South 482 555 33,000  Level FlightAware Transoceanic
11:13AM 0.6251 147.7506 158° South 482 555 33,000  Level FlightAware Transoceanic
11:14AM 0.5001 147.8005 158° South 482 555 33,000  Level FlightAware Transoceanic
11:15AM 0.3751 147.8504 158° South 482 555 33,000  Level FlightAware Transoceanic
11:16AM 0.2501 147.9003 158° South 482 555 33,000  Level FlightAware Transoceanic
11:17AM 0.1250 147.9501 158° South 482 555 33,000  Level FlightAware Transoceanic
11:18AM 0.0000 148.0000 158° South 482 555 33,000  Level FlightAware Transoceanic
11:19AM -0.1220 148.0487 158° South 482 555 33,000  Level FlightAware Transoceanic
11:20AM -0.2439 148.0973 158° South 482 555 33,000  Level FlightAware Transoceanic
11:21AM -0.3659 148.1460 158° South 482 555 33,000  Level FlightAware Transoceanic
11:22AM -0.4879 148.1946 158° South 482 555 33,000  Level FlightAware Transoceanic
11:23AM -0.6099 148.2433 158° South 482 555 33,000  Level FlightAware Transoceanic
11:24AM -0.7319 148.2920 158° South 482 555 33,000  Level FlightAware Transoceanic
11:25AM -0.8538 148.3406 158° South 482 555 33,000  Level FlightAware Transoceanic
11:26AM -0.9758 148.3893 158° South 482 555 33,000  Level FlightAware Transoceanic
11:27AM -1.0978 148.4380 158° South 482 555 33,000  Level FlightAware Transoceanic
11:28AM -1.2197 148.4866 158° South 482 555 33,000  Level FlightAware Transoceanic
11:29AM -1.3417 148.5353 158° South 482 555 33,000  Level FlightAware Transoceanic
11:30AM -1.4637 148.5840 158° South 482 555 33,000  Level FlightAware Transoceanic
11:31AM -1.5856 148.6327 158° South 482 555 33,000  Level FlightAware Transoceanic
11:32AM -1.7076 148.6814 158° South 482 555 33,000  Level FlightAware Transoceanic
11:33AM -1.8296 148.7301 158° South 482 555 33,000  Level FlightAware Transoceanic
11:34AM -1.9516 148.7788 158° South 482 555 33,000  Level FlightAware Transoceanic
11:35AM -2.0735 148.8275 158° South 482 555 33,000  Level FlightAware Transoceanic
11:36AM -2.1955 148.8763 158° South 482 555 33,000  Level FlightAware Transoceanic
11:37AM -2.3174 148.9250 158° South 482 555 33,000  Level FlightAware Transoceanic
11:38AM -2.4394 148.9737 158° South 482 555 33,000  Level FlightAware Transoceanic
11:39AM -2.5614 149.0225 158° South 482 555 33,000  Level FlightAware Transoceanic
11:40AM -2.6833 149.0712 158° South 482 555 33,000  Level FlightAware Transoceanic
11:41AM -2.8053 149.1200 158° South 482 555 33,000  Level FlightAware Transoceanic
11:42AM -2.9272 149.1688 158° South 482 555 33,000  Level FlightAware Transoceanic
11:43AM -3.0492 149.2176 158° South 482 555 33,000  Level FlightAware Transoceanic
11:44AM -3.1711 149.2664 158° South 482 555 33,000  Level FlightAware Transoceanic
11:45AM -3.2931 149.3152 158° South 482 555 33,000  Level FlightAware Transoceanic
11:46AM -3.4150 149.3640 158° South 482 555 33,000  Level FlightAware Transoceanic
11:47AM -3.5369 149.4128 158° South 482 555 33,000  Level FlightAware Transoceanic
11:48AM -3.6589 149.4617 158° South 482 555 33,000  Level FlightAware Transoceanic
11:49AM -3.7808 149.5105 158° South 482 555 33,000  Level FlightAware Transoceanic
11:50AM -3.9028 149.5594 158° South 482 555 33,000  Level FlightAware Transoceanic
11:51AM -4.0247 149.6083 158° South 482 555 33,000  Level FlightAware Transoceanic
11:52AM -4.1466 149.6572 158° South 482 555 33,000  Level FlightAware Transoceanic
11:53AM -4.2685 149.7061 158° South 482 555 33,000  Level FlightAware Transoceanic
11:54AM -4.3905 149.7551 158° South 482 555 33,000  Level FlightAware Transoceanic
11:55AM -4.5124 149.8040 158° South 482 555 33,000  Level FlightAware Transoceanic
11:56AM -4.6343 149.8530 158° South 482 555 33,000  Level FlightAware Transoceanic
11:57AM -4.7562 149.9020 158° South 482 555 33,000  Level FlightAware Transoceanic
11:58AM -4.8781 149.9510 158° South 482 555 33,000  Level FlightAware Transoceanic
11:59AM -5.0892 150.0831 148° Southeast  Level Estimated
12:00PM -5.3003 150.2153 148° Southeast  Level Estimated
12:01PM -5.5113 150.3476 148° Southeast  Level Estimated
12:02PM -5.7223 150.4800 148° Southeast  Level Estimated
12:03PM -5.9333 150.6125 148° Southeast  Level Estimated
12:04PM -6.1442 150.7451 148° Southeast  Level Estimated
12:05PM -6.3551 150.8778 148° Southeast  Level Estimated
12:06PM -6.5660 151.0106 148° Southeast  Level Estimated
12:07PM -6.7769 151.1435 148° Southeast  Level Estimated
12:08PM -6.9877 151.2766 148° Southeast  Level Estimated
12:09PM -7.1984 151.4097 148° Southeast  Level Estimated
12:10PM -7.4092 151.5430 148° Southeast  Level Estimated
12:11PM -7.6199 151.6764 148° Southeast  Level Estimated
12:12PM -7.8305 151.8099 148° Southeast  Level Estimated
12:13PM -8.0411 151.9436 148° Southeast  Level Estimated
12:14PM -8.2517 152.0774 148° Southeast  Level Estimated
12:15PM -8.4622 152.2114 148° Southeast  Level Estimated
12:16PM -8.6727 152.3455 148° Southeast  Level Estimated
12:17PM -8.8831 152.4797 148° Southeast  Level Estimated
12:18PM -9.0935 152.6141 148° Southeast  Level Estimated
12:19PM -9.3038 152.7487 148° Southeast  Level Estimated
12:20PM -9.5141 152.8834 148° Southeast  Level Estimated
12:21PM -9.7243 153.0183 148° Southeast  Level Estimated
12:22PM -9.9345 153.1534 148° Southeast  Level Estimated
12:23PM -10.1446 153.2886 148° Southeast  Level Estimated
12:24PM -10.3547 153.4240 148° Southeast  Level Estimated
12:25PM -10.5647 153.5596 148° Southeast  Level Estimated
12:26PM -10.7747 153.6954 148° Southeast  Level Estimated
12:27PM -10.9846 153.8314 148° Southeast  Level Estimated
12:28PM -11.1944 153.9675 148° Southeast  Level Estimated
12:29PM -11.4042 154.1039 147° Southeast  Level Estimated
12:30PM -11.6139 154.2405 147° Southeast  Level Estimated
12:31PM -11.8235 154.3772 147° Southeast  Level Estimated
12:32PM -12.0331 154.5142 147° Southeast  Level Estimated
12:33PM -12.2426 154.6514 147° Southeast  Level Estimated
12:33PM -10.0951 151.2362 124° Southeast 37,000  Level Aus ATC (Calculated)
12:34PM -12.4520 154.7888 147° Southeast  Level Estimated
12:35PM -10.3684 151.4272 145° Southeast  Level Estimated
12:36PM -10.5733 151.5706 145° Southeast  Level Estimated
12:36PM -10.3664 151.4176 145° Southeast 37,000  Level Aus ATC (Calculated)
12:38PM -10.7625 151.6952 145° Southeast  Level Estimated
12:39PM -10.9672 151.8390 145° Southeast  Level Estimated
12:40PM -11.1719 151.9831 145° Southeast  Level Estimated
12:41PM -11.3765 152.1274 145° Southeast  Level Estimated
12:42PM -11.5810 152.2719 145° Southeast  Level Estimated
12:43PM -11.7855 152.4165 145° Southeast  Level Estimated
12:44PM -11.9899 152.5615 145° Southeast  Level Estimated
12:45PM -12.1942 152.7066 145° Southeast  Level Estimated
12:46PM -12.3985 152.8519 145° Southeast  Level Estimated
12:47PM -12.6026 152.9975 145° Southeast  Level Estimated
12:48PM -12.8067 153.1433 145° Southeast  Level Estimated
12:49PM -13.0107 153.2894 145° Southeast  Level Estimated
12:50PM -13.2147 153.4357 145° Southeast  Level Estimated
12:51PM -13.4185 153.5822 145° Southeast  Level Estimated
12:51PM -12.0328 152.5403 144° Southeast 37,000  Level Aus ATC (Calculated)
12:52PM -13.6223 153.7290 145° Southeast  Level Estimated
12:53PM -12.4410 152.8313 145° Southeast  Level Estimated
12:53PM -12.2668 152.6992 145° Southeast 37,000  Level Aus ATC (Calculated)
12:54PM -12.4708 152.8449 145° Southeast  Level Estimated
12:55PM -12.6748 152.9908 145° Southeast  Level Estimated
12:56PM -12.8787 153.1369 145° Southeast  Level Estimated
12:56PM -12.5639 152.9016 145° Southeast 37,000  Level Aus ATC (Calculated)
12:58PM -12.9581 153.1842 145° Southeast  Level Estimated
12:59PM -13.1619 153.3307 145° Southeast  Level Estimated
01:00PM -13.3656 153.4774 145° Southeast  Level Estimated
01:01PM -13.5691 153.6244 145° Southeast  Level Estimated
01:02PM -13.7726 153.7717 145° Southeast  Level Estimated
01:03PM -13.9761 153.9192 145° Southeast  Level Estimated
01:04PM -14.1794 154.0669 145° Southeast  Level Estimated
01:05PM -14.3826 154.2150 145° Southeast  Level Estimated
01:06PM -14.5858 154.3633 145° Southeast  Level Estimated
01:07PM -14.7888 154.5118 145° Southeast  Level Estimated
01:08PM -14.9918 154.6607 145° Southeast  Level Estimated
01:09PM -15.1947 154.8098 145° Southeast  Level Estimated
01:10PM -15.3974 154.9592 145° Southeast  Level Estimated
01:11PM -15.6001 155.1089 145° Southeast  Level Estimated
01:12PM -15.8026 155.2590 145° Southeast  Level Estimated
01:13PM -16.0051 155.4093 144° Southeast  Level Estimated
01:14PM -16.2075 155.5599 144° Southeast  Level Estimated
01:15PM -16.4097 155.7108 144° Southeast  Level Estimated
01:16PM -16.6118 155.8620 144° Southeast  Level Estimated
01:17PM -16.8139 156.0136 144° Southeast  Level Estimated
01:18PM -17.0158 156.1655 144° Southeast  Level Estimated
01:19PM -17.2176 156.3177 144° Southeast  Level Estimated
01:20PM -17.4193 156.4702 144° Southeast  Level Estimated
01:21PM -17.6208 156.6231 144° Southeast  Level Estimated
01:22PM -17.8223 156.7763 144° Southeast  Level Estimated
01:23PM -18.0236 156.9298 144° Southeast  Level Estimated
01:24PM -18.2249 157.0838 144° Southeast  Level Estimated
01:25PM -18.4260 157.2380 144° Southeast  Level Estimated
01:26PM -18.6269 157.3927 144° Southeast  Level Estimated
01:27PM -18.8278 157.5477 144° Southeast  Level Estimated
01:28PM -19.0285 157.7030 144° Southeast  Level Estimated
01:29PM -19.2291 157.8588 144° Southeast  Level Estimated
01:30PM -19.4295 158.0149 144° Southeast  Level Estimated
01:31PM -19.6298 158.1714 144° Southeast  Level Estimated
01:32PM -19.8300 158.3283 144° Southeast  Level Estimated
01:33PM -20.0301 158.4856 144° Southeast  Level Estimated
01:34PM -20.2299 158.6433 144° Southeast  Level Estimated
01:34PM -16.8621 155.9012 143° Southeast 37,000  Level Aus ATC (Calculated)
01:35PM -20.4297 158.8014 143° Southeast  Level Estimated
01:36PM -17.1105 156.0895 144° Southeast  Level Estimated
01:37PM -17.3117 156.2426 144° Southeast  Level Estimated
01:37PM -17.0944 156.0603 144° Southeast 37,000  Level Aus ATC (Calculated)
01:38PM -17.2957 156.2134 144° Southeast  Level Estimated
01:38PM -17.3304 156.2114 138° Southeast 37,000  Level Aus ATC (Calculated)
01:39PM -17.4967 156.3669 144° Southeast  Level Estimated
01:40PM -17.5783 156.4009 144° Southeast  Level Estimated
01:40PM -17.4720 156.3022 144° Southeast 37,000  Level Aus ATC (Calculated)
01:42PM -17.8301 156.5771 144° Southeast  Level Estimated
01:42PM -17.7550 156.4843 140° Southeast 37,000  Level Aus ATC (Calculated)
01:43PM -18.0307 156.7316 144° Southeast  Level Estimated
01:44PM -18.0357 156.7009 144° Southeast  Level Estimated
01:45PM -18.2361 156.8560 144° Southeast  Level Estimated
01:46PM -18.4363 157.0115 144° Southeast  Level Estimated
01:47PM -18.6364 157.1673 144° Southeast  Level Estimated
01:48PM -18.8364 157.3236 144° Southeast  Level Estimated
01:49PM -19.0363 157.4801 143° Southeast  Level Estimated
01:50PM -19.2360 157.6371 143° Southeast  Level Estimated
01:51PM -19.4356 157.7945 143° Southeast  Level Estimated
01:52PM -19.6351 157.9522 143° Southeast  Level Estimated
01:53PM -19.8344 158.1103 143° Southeast  Level Estimated
01:54PM -20.0336 158.2689 143° Southeast  Level Estimated
01:55PM -20.2327 158.4278 143° Southeast  Level Estimated
01:56PM -20.4316 158.5871 143° Southeast  Level Estimated
01:57PM -20.6303 158.7469 143° Southeast  Level Estimated
01:58PM -20.8289 158.9071 143° Southeast  Level Estimated
01:59PM -21.0274 159.0677 143° Southeast  Level Estimated
02:00PM -21.2257 159.2287 143° Southeast  Level Estimated
02:01PM -21.4238 159.3901 143° Southeast  Level Estimated
02:02PM -21.6218 159.5520 143° Southeast  Level Estimated
02:03PM -21.8197 159.7143 143° Southeast  Level Estimated
02:04PM -22.0174 159.8771 143° Southeast  Level Estimated
02:04PM -20.2463 158.1186 143° Southeast 37,000  Level Aus ATC (Calculated)
02:06PM -20.6348 158.4359 143° Southeast  Level Estimated
02:07PM -20.8321 158.5978 143° Southeast  Level Estimated
02:08PM -21.0293 158.7602 142° Southeast  Level Estimated
02:09PM -21.2264 158.9230 142° Southeast  Level Estimated
02:10PM -21.4232 159.0862 142° Southeast  Level Estimated
02:11PM -21.6199 159.2499 142° Southeast  Level Estimated
02:12PM -21.8165 159.4141 142° Southeast  Level Estimated
02:13PM -22.0129 159.5786 142° Southeast  Level Estimated
02:14PM -22.2091 159.7437 142° Southeast  Level Estimated
02:15PM -22.4052 159.9092 142° Southeast  Level Estimated
02:16PM -22.6011 160.0752 142° Southeast  Level Estimated
02:17PM -22.7968 160.2416 142° Southeast  Level Estimated
02:17PM -21.7893 159.1621 142° Southeast 37,000  Level Aus ATC (Calculated)
02:19PM -22.0921 159.4194 142° Southeast  Level Estimated
02:20PM -22.2873 159.5860 142° Southeast  Level Estimated
02:21PM -22.4823 159.7531 142° Southeast  Level Estimated
02:22PM -22.6771 159.9206 142° Southeast  Level Estimated
02:23PM -22.8717 160.0886 142° Southeast  Level Estimated
02:24PM -23.0662 160.2571 141° Southeast  Level Estimated
02:24PM -22.5349 159.6760 141° Southeast 37,000  Level Aus ATC (Calculated)
02:26PM -22.9102 160.0020 141° Southeast  Level Estimated
02:27PM -23.1041 160.1714 141° Southeast  Level Estimated
02:28PM -23.2978 160.3412 141° Southeast  Level Estimated
02:28PM -23.0000 160.0000 141° Southeast 37,000  Level Aus ATC (Calculated)
02:29PM -23.1934 160.1701 141° Southeast  Level Estimated
02:30PM -23.3867 160.3406 141° Southeast  Level Estimated
02:31PM -23.5797 160.5117 141° Southeast  Level Estimated
02:31PM -23.3776 160.2733 141° Southeast 37,000  Level Aus ATC (Calculated)
02:33PM -23.6795 160.5421 141° Southeast  Level Estimated
02:34PM -23.8720 160.7142 141° Southeast  Level Estimated
02:35PM -24.0643 160.8870 141° Southeast  Level Estimated
02:36PM -24.2564 161.0602 141° Southeast  Level Estimated
02:37PM -24.4483 161.2339 141° Southeast  Level Estimated
02:38PM -24.6401 161.4082 140° Southeast  Level Estimated
02:39PM -24.8316 161.5830 140° Southeast  Level Estimated
02:40PM -25.0229 161.7584 140° Southeast  Level Estimated
02:41PM -25.2140 161.9343 140° Southeast  Level Estimated
02:42PM -25.4049 162.1108 140° Southeast  Level Estimated
02:43PM -25.5955 162.2878 140° Southeast  Level Estimated
02:44PM -25.7860 162.4654 140° Southeast  Level Estimated
02:45PM -25.9762 162.6435 140° Southeast  Level Estimated
02:46PM -26.1663 162.8222 140° Southeast  Level Estimated
02:47PM -26.3561 163.0016 140° Southeast  Level Estimated
02:47PM -25.1329 161.5696 135° Southeast 37,000  Level Aus ATC (Calculated)
02:48PM -26.5457 163.1815 140° Southeast  Level Estimated
02:49PM -25.5020 161.9178 140° Southeast  Level Estimated
02:49PM -25.4451 161.8049 133° Southeast 37,000  Level Aus ATC (Calculated)
02:50PM -25.6910 162.0972 139° Southeast  Level Estimated
02:51PM -25.6369 161.9876 139° Southeast  Level Estimated
02:52PM -25.8254 162.1678 139° Southeast  Level Estimated
02:53PM -26.0137 162.3486 139° Southeast  Level Estimated
02:54PM -26.2017 162.5299 139° Southeast  Level Estimated
02:55PM -26.3895 162.7119 139° Southeast  Level Estimated
02:56PM -26.5771 162.8945 139° Southeast  Level Estimated
02:57PM -26.7645 163.0776 139° Southeast  Level Estimated
02:58PM -26.9516 163.2614 139° Southeast  Level Estimated
02:59PM -27.1384 163.4457 139° Southeast  Level Estimated
02:59PM -26.5657 162.6622 132° Southeast 37,000  Level Aus ATC (Calculated)
03:00PM -27.3251 163.6307 139° Southeast  Level Estimated
03:01PM -26.7548 162.8501 138° Southeast  Level Estimated
03:02PM -26.9405 163.0355 138° Southeast  Level Estimated
03:03PM -27.1261 163.2216 138° Southeast  Level Estimated
03:04PM -27.3113 163.4083 138° Southeast  Level Estimated
03:05PM -27.4963 163.5956 138° Southeast  Level Estimated
03:06PM -27.6811 163.7835 138° Southeast  Level Estimated
03:07PM -27.8656 163.9721 138° Southeast  Level Estimated
03:08PM -28.0499 164.1613 138° Southeast  Level Estimated
03:09PM -28.2339 164.3512 138° Southeast  Level Estimated
03:10PM -28.4176 164.5417 138° Southeast  Level Estimated
03:11PM -28.6011 164.7328 138° Southeast  Level Estimated
03:12PM -28.7843 164.9247 137° Southeast  Level Estimated
03:13PM -28.9672 165.1172 137° Southeast  Level Estimated
03:14PM -29.1499 165.3104 137° Southeast  Level Estimated
03:15PM -29.3323 165.5043 137° Southeast  Level Estimated
03:16PM -29.5144 165.6989 137° Southeast  Level Estimated
03:17PM -29.6962 165.8942 137° Southeast  Level Estimated
03:18PM -29.8777 166.0902 137° Southeast  Level Estimated
03:19PM -30.0589 166.2869 137° Southeast  Level Estimated
03:20PM -30.2399 166.4843 137° Southeast  Level Estimated
03:21PM -30.4205 166.6825 137° Southeast  Level Estimated
03:22PM -30.6008 166.8814 137° Southeast  Level Estimated
03:23PM -30.7809 167.0810 136° Southeast  Level Estimated
03:24PM -30.9606 167.2814 136° Southeast  Level Estimated
03:25PM -31.1400 167.4825 136° Southeast  Level Estimated
03:26PM -31.3192 167.6844 136° Southeast  Level Estimated
03:27PM -31.4979 167.8871 136° Southeast  Level Estimated
03:28PM -31.6764 168.0905 136° Southeast  Level Estimated
03:29PM -31.8546 168.2947 136° Southeast  Level Estimated
03:30PM -32.0324 168.4997 136° Southeast  Level Estimated
03:31PM -32.2099 168.7055 136° Southeast  Level Estimated
03:32PM -32.3870 168.9122 135° Southeast  Level Estimated
03:33PM -32.5638 169.1196 135° Southeast  Level Estimated
03:34PM -32.7403 169.3278 135° Southeast  Level Estimated
03:35PM -32.9164 169.5369 135° Southeast  Level Estimated
03:36PM -33.0922 169.7468 135° Southeast  Level Estimated
03:37PM -33.2676 169.9575 135° Southeast  Level Estimated
03:38PM -33.4427 170.1691 135° Southeast  Level Estimated
03:39PM -33.6174 170.3816 135° Southeast  Level Estimated
03:40PM -33.7918 170.5949 135° Southeast  Level Estimated
03:41PM -33.9657 170.8091 134° Southeast  Level Estimated
03:42PM -34.1393 171.0241 134° Southeast  Level Estimated
03:43PM -34.3125 171.2401 134° Southeast  Level Estimated
03:44PM -34.4854 171.4569 134° Southeast  Level Estimated
03:45PM -34.6578 171.6746 134° Southeast  Level Estimated
03:46PM -34.8299 171.8932 134° Southeast  Level Estimated
03:47PM -35.0016 172.1128 134° Southeast  Level Estimated
03:48PM -35.1729 172.3333 134° Southeast  Level Estimated
03:49PM -35.3438 172.5547 133° Southeast  Level Estimated
03:50PM -35.5142 172.7770 133° Southeast  Level Estimated
03:51PM -35.6843 173.0003 133° Southeast  Level Estimated
03:52PM -35.8539 173.2245 133° Southeast  Level Estimated
03:53PM -36.0232 173.4497 133° Southeast  Level Estimated
03:54PM -36.1920 173.6759 133° Southeast  Level Estimated
03:55PM -36.3604 173.9030 133° Southeast  Level Estimated
03:56PM -36.5283 174.1312 133° Southeast  Level Estimated
03:57PM -36.6958 174.3603 132° Southeast  Level Estimated
03:58PM -36.8629 174.5904 132° Southeast  Level Estimated

Login

Don't have an account? Register now (free) for customized features, flight alerts, and more!